Time;durP1;ratioP1;P1;durP2;ratioP2;P2;SDS_P1;SDS_P2;PMS_P1;PMS_P2;Temp;Humidity;BMP_temperature;BMP_pressure;BME280_temperature;BME280_humidity;BME280_pressure;Samples;Min_cycle;Max_cycle;Signal;HPM_P1;HPM_P2
2023/01/23 00:00:29;;;;;;;37.37;11.07;;;1.00;99.90;;;;;;5016856;28;20183;-74
2023/01/23 00:02:55;;;;;;;40.80;12.30;;;1.00;99.90;;;;;;5024571;28;20199;-75
2023/01/23 00:05:21;;;;;;;33.17;12.37;;;1.00;99.90;;;;;;5024037;28;20216;-76
2023/01/23 00:07:46;;;;;;;29.97;10.33;;;1.00;99.90;;;;;;5023379;28;20427;-75
2023/01/23 00:10:12;;;;;;;32.40;10.57;;;1.00;99.90;;;;;;5031425;28;20764;-75
2023/01/23 00:12:41;;;;;;;31.60;11.13;;;0.90;99.90;;;;;;5030595;28;20202;-75
2023/01/23 00:15:07;;;;;;;43.90;11.80;;;1.00;99.90;;;;;;5031182;28;20208;-76
2023/01/23 00:17:33;;;;;;;44.13;11.97;;;1.00;99.90;;;;;;5031181;28;20417;-76
2023/01/23 00:19:59;;;;;;;39.13;12.10;;;1.00;99.90;;;;;;5031143;28;20846;-74
2023/01/23 00:22:25;;;;;;;38.57;11.90;;;1.00;99.90;;;;;;5030868;28;20199;-73
2023/01/23 00:24:50;;;;;;;35.67;11.23;;;1.00;99.90;;;;;;5029882;28;20459;-75
2023/01/23 00:27:16;;;;;;;33.80;11.93;;;1.00;99.90;;;;;;5021825;28;20173;-75
2023/01/23 00:29:41;;;;;;;34.30;11.53;;;1.00;99.90;;;;;;5030697;28;20251;-75
2023/01/23 00:32:07;;;;;;;37.83;11.83;;;1.00;99.90;;;;;;5030849;28;20203;-77
2023/01/23 00:34:32;;;;;;;39.10;12.20;;;1.00;99.90;;;;;;5029360;28;20221;-75
2023/01/23 00:36:58;;;;;;;33.17;12.60;;;1.10;99.90;;;;;;5030872;28;20222;-75
2023/01/23 00:39:24;;;;;;;31.77;11.70;;;1.10;99.90;;;;;;5031067;28;20180;-76
2023/01/23 00:41:49;;;;;;;31.77;10.70;;;1.00;99.90;;;;;;5030608;28;20210;-74
2023/01/23 00:44:15;;;;;;;32.90;11.60;;;1.00;99.90;;;;;;5030737;28;20195;-75
2023/01/23 00:46:41;;;;;;;31.27;11.50;;;1.00;99.90;;;;;;5030426;28;20337;-75
2023/01/23 00:49:07;;;;;;;26.60;10.70;;;1.00;99.90;;;;;;5030952;28;20504;-76
2023/01/23 00:51:33;;;;;;;38.47;12.30;;;0.90;99.90;;;;;;5022185;28;20208;-76
2023/01/23 00:54:00;;;;;;;32.20;12.17;;;1.00;99.90;;;;;;5023245;28;20984;-76
2023/01/23 00:56:25;;;;;;;26.60;9.93;;;1.10;99.90;;;;;;5030811;28;20208;-75
2023/01/23 00:58:50;;;;;;;29.43;9.83;;;1.20;99.90;;;;;;5030592;28;20425;-77
2023/01/23 01:01:16;;;;;;;27.77;10.20;;;1.20;99.90;;;;;;5030895;28;20207;-75
2023/01/23 01:03:43;;;;;;;27.30;9.80;;;1.20;99.90;;;;;;5033984;28;20182;-75
2023/01/23 01:06:09;;;;;;;32.23;11.00;;;1.20;99.90;;;;;;5026529;28;20187;-75
2023/01/23 01:08:35;;;;;;;27.47;10.87;;;1.10;99.90;;;;;;5033072;28;20804;-75
2023/01/23 01:11:00;;;;;;;22.33;10.30;;;1.10;99.90;;;;;;5034149;28;20454;-75
2023/01/23 01:13:27;;;;;;;25.40;10.10;;;1.20;99.90;;;;;;5034183;28;20824;-75
2023/01/23 01:15:53;;;;;;;24.83;9.43;;;1.20;99.90;;;;;;5033891;28;20243;-75
2023/01/23 01:18:20;;;;;;;24.80;10.17;;;1.20;99.90;;;;;;5034354;28;20471;-75
2023/01/23 01:20:46;;;;;;;28.40;10.73;;;1.20;99.90;;;;;;5033779;28;20462;-75
2023/01/23 01:23:12;;;;;;;29.33;9.90;;;1.10;99.90;;;;;;5034120;28;20843;-75
2023/01/23 01:25:37;;;;;;;24.57;10.33;;;1.10;99.90;;;;;;5033023;28;20415;-76
2023/01/23 01:28:03;;;;;;;25.13;9.60;;;1.20;99.90;;;;;;5027018;28;20206;-75
2023/01/23 01:30:29;;;;;;;28.10;10.87;;;1.10;99.90;;;;;;5032423;28;20211;-76
2023/01/23 01:32:55;;;;;;;26.57;10.80;;;1.10;99.90;;;;;;5029356;28;20652;-77
2023/01/23 01:35:21;;;;;;;28.67;10.60;;;1.10;99.90;;;;;;5029009;28;20592;-77
2023/01/23 01:37:47;;;;;;;28.07;11.70;;;1.10;99.90;;;;;;5033608;28;20425;-76
2023/01/23 01:40:19;;;;;;;30.67;11.47;;;1.10;99.90;;;;;;5033815;28;20410;-77
2023/01/23 01:42:49;;;;;;;25.17;10.20;;;1.10;99.90;;;;;;5033019;28;20490;-76
2023/01/23 01:45:58;;;;;;;40.87;12.97;;;1.10;99.90;;;;;;5032948;28;20922;-76
2023/01/23 01:48:37;;;;;;;24.37;11.00;;;1.10;99.90;;;;;;5034260;28;20431;-76
2023/01/23 01:51:08;;;;;;;29.57;11.07;;;1.10;99.90;;;;;;5032253;28;20454;-73
2023/01/23 01:53:35;;;;;;;29.50;11.60;;;1.20;99.90;;;;;;5032705;28;20823;-76
2023/01/23 01:56:02;;;;;;;29.77;11.60;;;1.10;99.90;;;;;;5033211;28;20835;-75
2023/01/23 01:58:28;;;;;;;29.50;10.50;;;1.10;99.90;;;;;;5026677;28;20427;-75
2023/01/23 03:31:31;;;;;;;48.17;11.43;;;1.10;99.90;;;;;;5614182;22;20499;-74
2023/01/23 03:33:56;;;;;;;45.47;11.87;;;1.20;99.90;;;;;;5059481;28;20431;-76
2023/01/23 03:36:22;;;;;;;43.20;11.90;;;1.20;99.90;;;;;;5062666;28;20209;-75
2023/01/23 03:41:31;;;;;;;52.93;14.70;;;1.10;99.90;;;;;;5063524;28;20224;-76
2023/01/23 03:43:57;;;;;;;63.30;13.10;;;1.10;99.90;;;;;;5062325;28;20434;-75
2023/01/23 03:46:22;;;;;;;48.73;11.83;;;1.10;99.90;;;;;;5061778;28;20256;-76
2023/01/23 03:48:48;;;;;;;48.23;12.50;;;1.10;99.90;;;;;;5061428;28;20628;-75
2023/01/23 03:51:13;;;;;;;47.40;12.07;;;1.10;99.90;;;;;;5063862;28;20213;-76
2023/01/23 03:53:39;;;;;;;44.83;13.60;;;1.10;99.90;;;;;;5062633;28;20205;-75
2023/01/23 03:56:05;;;;;;;41.90;13.27;;;1.00;99.90;;;;;;5054199;28;20241;-76
2023/01/23 03:58:31;;;;;;;39.07;12.50;;;1.00;99.90;;;;;;5062870;28;20231;-75
2023/01/23 04:00:56;;;;;;;39.10;13.47;;;1.10;99.90;;;;;;5061949;28;20444;-75
2023/01/23 04:03:22;;;;;;;38.40;13.00;;;1.10;99.90;;;;;;5064938;28;20527;-75
2023/01/23 04:05:47;;;;;;;39.83;12.83;;;1.10;99.90;;;;;;5060058;28;20232;-77
2023/01/23 04:08:13;;;;;;;42.93;12.10;;;1.00;99.90;;;;;;5062596;28;20644;-76
2023/01/23 04:10:38;;;;;;;41.10;13.00;;;1.00;99.90;;;;;;5062897;28;20205;-75
2023/01/23 04:13:04;;;;;;;41.07;12.47;;;1.00;99.90;;;;;;5058655;28;20193;-75
2023/01/23 04:15:32;;;;;;;43.70;13.20;;;1.00;99.90;;;;;;5059202;28;20210;-76
2023/01/23 04:17:57;;;;;;;42.90;13.87;;;1.00;99.90;;;;;;5060847;28;20186;-76
2023/01/23 04:20:23;;;;;;;41.30;12.80;;;1.00;99.90;;;;;;5062451;28;20430;-75
2023/01/23 04:22:48;;;;;;;39.90;14.00;;;1.00;99.90;;;;;;5053922;28;20701;-75
2023/01/23 04:25:14;;;;;;;41.67;13.67;;;1.10;99.90;;;;;;5062216;28;20184;-75
2023/01/23 04:27:39;;;;;;;37.80;12.33;;;1.00;99.90;;;;;;5062651;28;20183;-75
2023/01/23 04:30:05;;;;;;;39.70;13.47;;;1.00;99.90;;;;;;5067609;28;20209;-76
2023/01/23 04:32:31;;;;;;;39.20;12.70;;;1.10;99.90;;;;;;5065675;28;20649;-75
2023/01/23 04:34:56;;;;;;;38.57;13.63;;;1.10;99.90;;;;;;5052755;28;20536;-75
2023/01/23 04:37:22;;;;;;;36.50;12.20;;;1.10;99.90;;;;;;5063780;28;20237;-75
2023/01/23 04:39:47;;;;;;;36.10;12.23;;;1.10;99.90;;;;;;5065205;28;20193;-75
2023/01/23 04:42:13;;;;;;;39.20;12.87;;;1.10;99.90;;;;;;5062552;28;20210;-75
2023/01/23 04:44:38;;;;;;;39.30;12.80;;;1.20;99.90;;;;;;5061540;28;20192;-76
2023/01/23 04:47:04;;;;;;;33.90;13.87;;;1.10;99.90;;;;;;5070579;28;20196;-75
2023/01/23 04:49:29;;;;;;;40.37;13.87;;;1.10;99.90;;;;;;5062812;28;20188;-75
2023/01/23 04:51:55;;;;;;;36.97;12.23;;;1.10;99.90;;;;;;5063784;28;20699;-75
2023/01/23 04:54:21;;;;;;;39.70;13.90;;;1.10;99.90;;;;;;5066019;28;20194;-75
2023/01/23 04:56:47;;;;;;;40.03;14.70;;;1.00;99.90;;;;;;5056758;28;20210;-75
2023/01/23 04:59:13;;;;;;;33.50;12.53;;;1.00;99.90;;;;;;5066170;28;20455;-75
2023/01/23 05:01:39;;;;;;;34.27;11.53;;;1.10;99.90;;;;;;5065595;28;20879;-75
2023/01/23 05:04:04;;;;;;;29.03;12.40;;;1.10;99.90;;;;;;5062735;28;20519;-73
2023/01/23 05:06:30;;;;;;;40.70;13.30;;;1.00;99.90;;;;;;5062065;28;20202;-74
2023/01/23 05:08:55;;;;;;;56.53;12.67;;;1.00;99.90;;;;;;5063705;28;20654;-75
2023/01/23 05:11:21;;;;;;;45.97;13.33;;;1.00;99.90;;;;;;5065690;28;20202;-76
2023/01/23 05:13:47;;;;;;;41.57;13.37;;;1.00;99.90;;;;;;5065269;28;20189;-75
2023/01/23 05:16:12;;;;;;;43.73;12.93;;;1.00;99.90;;;;;;5065600;28;20568;-75
2023/01/23 05:18:38;;;;;;;42.47;12.17;;;1.10;99.90;;;;;;5058371;28;20558;-75
2023/01/23 05:21:03;;;;;;;42.40;13.73;;;1.10;99.90;;;;;;5061808;28;20214;-75
2023/01/23 05:23:29;;;;;;;45.50;15.77;;;1.10;99.90;;;;;;5061880;28;20184;-75
2023/01/23 05:25:54;;;;;;;29.87;13.23;;;1.10;99.90;;;;;;5062946;28;20201;-75
2023/01/23 05:28:20;;;;;;;27.97;12.83;;;1.00;99.90;;;;;;5065672;28;20275;-76
2023/01/23 05:30:46;;;;;;;23.00;11.20;;;1.10;99.90;;;;;;5073051;28;20769;-74
2023/01/23 05:33:11;;;;;;;26.43;12.07;;;1.10;99.90;;;;;;5049085;28;20191;-75
2023/01/23 05:35:40;;;;;;;26.63;11.90;;;1.10;99.90;;;;;;5056489;28;20233;-76
2023/01/23 05:38:05;;;;;;;26.40;12.67;;;1.20;99.90;;;;;;5064087;28;20755;-76
2023/01/23 05:40:31;;;;;;;28.50;12.37;;;1.10;99.90;;;;;;5064485;28;20428;-75
2023/01/23 05:42:57;;;;;;;34.80;13.30;;;1.10;99.90;;;;;;5065098;28;20181;-76
2023/01/23 05:45:23;;;;;;;24.70;11.80;;;1.10;99.90;;;;;;5065656;28;20447;-76
2023/01/23 05:47:49;;;;;;;27.63;13.90;;;1.10;99.90;;;;;;5064214;28;20530;-76
2023/01/23 05:50:18;;;;;;;30.90;12.13;;;1.10;99.90;;;;;;5061749;28;20197;-76
2023/01/23 05:52:45;;;;;;;31.27;12.90;;;1.10;99.90;;;;;;5061115;28;20496;-75
2023/01/23 05:55:11;;;;;;;26.50;11.97;;;1.10;99.90;;;;;;5061406;28;20474;-76
2023/01/23 05:57:36;;;;;;;28.43;12.37;;;1.10;99.90;;;;;;5061569;28;20998;-75
2023/01/23 06:00:04;;;;;;;34.27;12.37;;;1.10;99.90;;;;;;5061441;28;20976;-75
2023/01/23 06:02:29;;;;;;;34.50;14.40;;;1.10;99.90;;;;;;5061251;28;20201;-73
2023/01/23 06:04:55;;;;;;;30.13;11.80;;;1.10;99.90;;;;;;5061562;28;20429;-75
2023/01/23 06:07:20;;;;;;;29.40;11.77;;;1.10;99.90;;;;;;5061783;28;20192;-75
2023/01/23 06:09:46;;;;;;;30.43;12.83;;;1.10;99.90;;;;;;5061421;28;20268;-76
2023/01/23 06:12:12;;;;;;;34.80;13.20;;;1.10;99.90;;;;;;5064425;28;20678;-75
2023/01/23 06:14:37;;;;;;;34.50;12.20;;;1.10;99.90;;;;;;5057884;28;20195;-75
2023/01/23 06:17:04;;;;;;;27.97;12.10;;;1.10;99.90;;;;;;5062696;28;20308;-75
2023/01/23 06:19:29;;;;;;;36.87;13.70;;;1.20;99.90;;;;;;5059151;28;20213;-75
2023/01/23 06:21:55;;;;;;;44.33;14.67;;;1.10;99.90;;;;;;5061426;28;21011;-75
2023/01/23 06:24:20;;;;;;;32.73;11.97;;;1.10;99.90;;;;;;5068390;28;20725;-76
2023/01/23 06:26:46;;;;;;;34.93;11.70;;;1.10;99.90;;;;;;5060925;28;20206;-75
2023/01/23 06:29:11;;;;;;;45.07;14.03;;;1.10;99.90;;;;;;5061052;28;20223;-76
2023/01/23 06:31:37;;;;;;;30.60;12.87;;;1.10;99.90;;;;;;5060802;28;20232;-75
2023/01/23 06:34:02;;;;;;;48.67;15.83;;;1.10;99.90;;;;;;5062482;28;20242;-75
2023/01/23 06:36:28;;;;;;;31.63;11.77;;;1.10;99.90;;;;;;5072389;28;20467;-75
2023/01/23 06:38:54;;;;;;;26.20;11.60;;;1.20;99.90;;;;;;5063994;28;20197;-75
2023/01/23 06:41:20;;;;;;;31.40;11.90;;;1.20;99.90;;;;;;5063913;28;20203;-75
2023/01/23 06:43:46;;;;;;;29.03;12.37;;;1.10;99.90;;;;;;5062769;28;20217;-76
2023/01/23 06:46:11;;;;;;;34.67;12.57;;;1.10;99.90;;;;;;5061439;28;20836;-76
2023/01/23 06:48:37;;;;;;;19.50;11.33;;;1.10;99.90;;;;;;5060827;28;20193;-75
2023/01/23 06:51:04;;;;;;;18.97;11.10;;;1.10;99.90;;;;;;5060760;28;20571;-76
2023/01/23 06:53:30;;;;;;;22.30;11.80;;;1.10;99.90;;;;;;5060532;28;20879;-75
2023/01/23 06:56:06;;;;;;;21.63;12.53;;;1.10;99.90;;;;;;5060325;28;20462;-75
2023/01/23 06:58:33;;;;;;;24.17;12.60;;;1.10;99.90;;;;;;5057948;28;20427;-74
2023/01/23 07:00:59;;;;;;;23.43;12.00;;;1.20;99.90;;;;;;5061476;28;20440;-75
2023/01/23 07:03:24;;;;;;;23.80;12.93;;;1.20;99.90;;;;;;5060018;28;20433;-75
2023/01/23 07:05:51;;;;;;;30.40;16.17;;;1.20;99.90;;;;;;5060084;28;20442;-75
2023/01/23 07:08:16;;;;;;;21.13;11.50;;;1.30;99.90;;;;;;5062480;28;20838;-75
2023/01/23 07:10:42;;;;;;;21.40;12.07;;;1.30;99.90;;;;;;5056547;28;20453;-74
2023/01/23 07:13:09;;;;;;;20.77;11.47;;;1.30;99.90;;;;;;5061745;28;20198;-74
2023/01/23 07:15:35;;;;;;;23.03;11.60;;;1.30;99.90;;;;;;5063271;28;20226;-75
2023/01/23 07:18:01;;;;;;;23.20;12.80;;;1.30;99.90;;;;;;5061999;28;20502;-74
2023/01/23 07:20:28;;;;;;;26.50;13.23;;;1.30;99.90;;;;;;5060739;28;20273;-75
2023/01/23 07:22:54;;;;;;;23.87;11.80;;;1.30;99.90;;;;;;5059225;28;20522;-73
2023/01/23 07:25:21;;;;;;;23.00;12.03;;;1.30;99.90;;;;;;5060072;28;20844;-75
2023/01/23 07:27:46;;;;;;;25.60;13.30;;;1.30;99.90;;;;;;5051789;28;20420;-75
2023/01/23 07:30:12;;;;;;;22.80;11.40;;;1.30;99.90;;;;;;5068178;28;20998;-75
2023/01/23 07:32:38;;;;;;;24.20;12.40;;;1.30;99.90;;;;;;5059009;28;20225;-75
2023/01/23 07:35:04;;;;;;;22.60;12.50;;;1.30;99.90;;;;;;5058822;28;20241;-75
2023/01/23 07:37:29;;;;;;;26.17;12.87;;;1.30;99.90;;;;;;5059489;28;20186;-75
2023/01/23 07:39:55;;;;;;;28.30;13.67;;;1.30;99.90;;;;;;5067397;28;20465;-75
2023/01/23 07:42:21;;;;;;;23.73;12.90;;;1.30;99.90;;;;;;5059467;28;20198;-74
2023/01/23 07:44:46;;;;;;;24.27;12.57;;;1.30;99.90;;;;;;5058952;28;20188;-75
2023/01/23 07:47:12;;;;;;;23.03;12.60;;;1.30;99.90;;;;;;5061142;28;20193;-75
2023/01/23 07:49:37;;;;;;;28.47;16.07;;;1.30;99.90;;;;;;5062454;28;20265;-74
2023/01/23 07:52:03;;;;;;;25.83;13.33;;;1.40;99.90;;;;;;5061107;28;20215;-75
2023/01/23 07:54:29;;;;;;;26.00;12.83;;;1.40;99.90;;;;;;5058551;28;20252;-74
2023/01/23 07:56:54;;;;;;;27.90;13.00;;;1.40;99.90;;;;;;5059026;28;20476;-74
2023/01/23 07:59:20;;;;;;;25.00;13.30;;;1.40;99.90;;;;;;5046556;28;20677;-75
2023/01/23 08:01:47;;;;;;;27.03;13.53;;;1.40;99.90;;;;;;5062307;28;20212;-75
2023/01/23 08:04:13;;;;;;;24.40;11.83;;;1.40;99.90;;;;;;5059690;28;20239;-75
2023/01/23 08:06:39;;;;;;;25.90;12.70;;;1.40;99.90;;;;;;5056618;28;20771;-76
2023/01/23 08:09:04;;;;;;;26.90;14.03;;;1.40;99.90;;;;;;5059650;28;20187;-74
2023/01/23 08:11:30;;;;;;;26.57;12.70;;;1.50;99.90;;;;;;5063690;28;20263;-74
2023/01/23 08:13:55;;;;;;;29.37;12.80;;;1.40;99.90;;;;;;5059086;28;20283;-74
2023/01/23 08:16:21;;;;;;;27.57;13.83;;;1.40;99.90;;;;;;5044503;28;20712;-75
2023/01/23 08:18:46;;;;;;;26.83;12.57;;;1.50;99.90;;;;;;5060876;28;20229;-75
2023/01/23 08:21:12;;;;;;;31.67;14.30;;;1.40;99.90;;;;;;5059494;28;20215;-75
2023/01/23 08:23:38;;;;;;;29.20;14.03;;;1.40;99.90;;;;;;5064451;28;20236;-75
2023/01/23 08:26:05;;;;;;;28.17;13.50;;;1.40;99.90;;;;;;5061144;28;20324;-75
2023/01/23 08:28:31;;;;;;;28.20;13.77;;;1.40;99.90;;;;;;5059068;28;20191;-74
2023/01/23 08:31:01;;;;;;;31.87;13.60;;;1.50;99.90;;;;;;5058384;28;20592;-73
2023/01/23 08:33:26;;;;;;;30.97;15.13;;;1.60;99.90;;;;;;5066347;28;20196;-75
2023/01/23 08:35:54;;;;;;;34.00;14.97;;;1.70;99.90;;;;;;5059081;28;20814;-75
2023/01/23 08:38:21;;;;;;;27.00;12.60;;;1.60;99.90;;;;;;5067125;28;20236;-75
2023/01/23 08:40:48;;;;;;;32.60;14.23;;;1.80;99.90;;;;;;5050892;28;20538;-75
2023/01/23 08:43:14;;;;;;;31.73;14.70;;;1.70;99.90;;;;;;5060939;28;20435;-74
2023/01/23 08:45:40;;;;;;;30.97;14.57;;;1.70;99.90;;;;;;5056391;28;20869;-74
2023/01/23 08:48:07;;;;;;;29.07;14.20;;;1.70;99.90;;;;;;5059803;28;20425;-75
2023/01/23 08:50:33;;;;;;;32.93;13.23;;;1.70;99.90;;;;;;5062256;28;20428;-75
2023/01/23 08:52:59;;;;;;;31.90;14.20;;;1.80;99.90;;;;;;5053409;28;20435;-74
2023/01/23 08:55:25;;;;;;;29.07;12.93;;;1.90;99.90;;;;;;5062584;28;20463;-75
2023/01/23 08:57:50;;;;;;;33.53;11.60;;;1.90;99.90;;;;;;5063185;28;20186;-75
2023/01/23 09:00:16;;;;;;;27.97;12.60;;;1.90;99.90;;;;;;5061071;28;20961;-75
2023/01/23 09:02:42;;;;;;;27.87;12.63;;;2.00;99.90;;;;;;5063674;28;20208;-75
2023/01/23 09:05:08;;;;;;;29.73;12.73;;;2.10;99.90;;;;;;5060107;28;20440;-75
2023/01/23 09:07:36;;;;;;;24.10;11.77;;;2.20;99.90;;;;;;5057498;28;20266;-74
2023/01/23 09:10:04;;;;;;;24.07;11.33;;;2.40;99.90;;;;;;5057474;28;20233;-74
2023/01/23 09:12:31;;;;;;;27.33;12.30;;;2.50;99.90;;;;;;5062751;28;20453;-73
2023/01/23 09:14:57;;;;;;;27.63;12.90;;;2.60;99.90;;;;;;5060800;28;20455;-75
2023/01/23 09:17:22;;;;;;;28.97;11.77;;;2.50;99.90;;;;;;5058537;28;20773;-76
2023/01/23 09:19:48;;;;;;;21.17;10.17;;;2.50;99.90;;;;;;5056115;28;20433;-74
2023/01/23 09:22:13;;;;;;;23.60;10.23;;;2.40;99.90;;;;;;5053827;28;20618;-75
2023/01/23 09:24:38;;;;;;;21.97;10.80;;;2.40;99.90;;;;;;5065410;28;20232;-75
2023/01/23 09:27:04;;;;;;;22.53;10.27;;;2.60;99.90;;;;;;5065509;28;20295;-75
2023/01/23 09:29:30;;;;;;;23.00;10.13;;;2.80;99.90;;;;;;5061823;28;20199;-74
2023/01/23 09:31:57;;;;;;;23.97;10.40;;;2.70;99.90;;;;;;5053818;28;20701;-75
2023/01/23 09:34:23;;;;;;;19.83;9.27;;;2.70;99.90;;;;;;5062018;28;20582;-76
2023/01/23 09:36:48;;;;;;;23.23;9.80;;;2.80;99.90;;;;;;5062004;28;20474;-75
2023/01/23 09:39:14;;;;;;;19.70;8.93;;;2.60;99.90;;;;;;5071686;28;20190;-76
2023/01/23 09:41:42;;;;;;;22.60;10.33;;;2.40;99.90;;;;;;5065071;28;20207;-75
2023/01/23 09:44:16;;;;;;;21.20;9.33;;;2.20;99.90;;;;;;5065112;28;20672;-75
2023/01/23 09:46:50;;;;;;;21.23;9.73;;;2.10;99.90;;;;;;5067821;28;20432;-75
2023/01/23 09:49:22;;;;;;;26.67;10.50;;;2.10;99.90;;;;;;5062020;28;20465;-75
2023/01/23 09:52:02;;;;;;;21.20;9.20;;;2.00;99.90;;;;;;5059840;28;20548;-75
2023/01/23 09:54:27;;;;;;;24.87;10.67;;;2.10;99.90;;;;;;5061652;28;20849;-75
2023/01/23 09:56:55;;;;;;;24.00;11.70;;;2.00;99.90;;;;;;5061629;28;20516;-75
2023/01/23 09:59:37;;;;;;;26.27;10.63;;;2.00;99.90;;;;;;5069721;28;20199;-75
2023/01/23 10:02:19;;;;;;;24.70;10.57;;;2.00;99.90;;;;;;5060987;28;20457;-74
2023/01/23 10:04:47;;;;;;;27.40;11.60;;;2.00;99.90;;;;;;5058930;28;20424;-74
2023/01/23 10:07:30;;;;;;;23.50;10.50;;;2.10;99.90;;;;;;5062704;28;20432;-74
2023/01/23 10:10:15;;;;;;;26.93;10.53;;;2.10;99.90;;;;;;5063771;28;20449;-74
2023/01/23 10:12:50;;;;;;;23.50;9.67;;;2.10;99.90;;;;;;5046674;28;20491;-75
2023/01/23 10:15:40;;;;;;;26.53;10.53;;;2.20;99.90;;;;;;5069393;28;20468;-75
2023/01/23 10:18:17;;;;;;;29.90;11.63;;;2.30;99.90;;;;;;5061012;28;20442;-74
2023/01/23 10:21:06;;;;;;;27.20;10.17;;;2.50;99.90;;;;;;5060970;28;20457;-73
2023/01/23 10:23:39;;;;;;;24.37;10.50;;;2.50;99.90;;;;;;5053766;28;20422;-75
2023/01/23 10:26:13;;;;;;;22.47;9.63;;;2.50;99.90;;;;;;5061085;28;20995;-75
2023/01/23 10:28:41;;;;;;;24.90;9.73;;;2.40;99.90;;;;;;5061062;28;20424;-74
2023/01/23 10:31:50;;;;;;;22.80;10.17;;;2.30;99.90;;;;;;5068515;28;20466;-75
2023/01/23 10:34:47;;;;;;;23.87;10.13;;;2.30;99.90;;;;;;4995942;28;20853;-75
2023/01/23 10:37:20;;;;;;;25.77;9.63;;;2.60;99.90;;;;;;4991895;28;21116;-75
2023/01/23 10:39:59;;;;;;;24.90;10.37;;;3.00;99.90;;;;;;5047357;28;20436;-75
2023/01/23 10:42:26;;;;;;;25.80;9.53;;;3.10;99.90;;;;;;5063407;28;20553;-75
2023/01/23 10:44:52;;;;;;;25.17;10.43;;;3.10;99.90;;;;;;5057353;28;20432;-75
2023/01/23 10:47:40;;;;;;;23.80;10.53;;;3.00;99.90;;;;;;5060490;28;20432;-76
2023/01/23 10:50:06;;;;;;;25.43;9.67;;;3.00;99.90;;;;;;5060467;28;20191;-74
2023/01/23 10:52:37;;;;;;;26.97;9.80;;;2.90;99.90;;;;;;5072007;28;20513;-73
2023/01/23 10:55:24;;;;;;;27.27;10.23;;;2.70;99.90;;;;;;5055990;28;20523;-75
2023/01/23 10:57:54;;;;;;;23.00;11.20;;;2.70;99.90;;;;;;5071606;28;20443;-75
2023/01/23 11:00:35;;;;;;;23.60;8.93;;;2.70;99.90;;;;;;5063534;28;20459;-73
2023/01/23 11:03:19;;;;;;;21.50;9.80;;;2.60;99.90;;;;;;5062276;28;20472;-74
2023/01/23 11:05:53;;;;;;;24.70;10.50;;;2.50;99.90;;;;;;5063691;28;20513;-75
2023/01/23 11:08:39;;;;;;;24.57;10.90;;;2.50;99.90;;;;;;5061568;28;20547;-74
2023/01/23 11:11:19;;;;;;;31.17;10.73;;;2.40;99.90;;;;;;5060294;28;20991;-75
2023/01/23 11:13:47;;;;;;;22.53;9.93;;;2.30;99.90;;;;;;5058202;28;20935;-74
2023/01/23 11:16:18;;;;;;;24.17;10.43;;;2.40;99.90;;;;;;5059434;28;20469;-74
2023/01/23 11:18:53;;;;;;;24.03;9.90;;;2.30;99.90;;;;;;5066504;28;21027;-74
2023/01/23 11:21:26;;;;;;;24.80;11.77;;;2.30;99.90;;;;;;5051842;28;20811;-75
2023/01/23 11:24:08;;;;;;;27.83;11.70;;;2.30;99.90;;;;;;5059519;28;20458;-74
2023/01/23 11:26:36;;;;;;;25.57;10.10;;;2.40;99.90;;;;;;5052063;28;20496;-75
2023/01/23 11:29:02;;;;;;;26.10;10.77;;;2.40;99.90;;;;;;5059406;28;20420;-74
2023/01/23 11:31:29;;;;;;;25.13;10.30;;;2.50;99.90;;;;;;5063370;28;20490;-75
2023/01/23 11:34:12;;;;;;;28.57;11.10;;;2.60;99.90;;;;;;5064799;28;20437;-74
2023/01/23 11:36:41;;;;;;;25.03;9.40;;;2.70;99.90;;;;;;5050694;28;20997;-75
2023/01/23 11:39:22;;;;;;;26.70;10.27;;;2.70;99.90;;;;;;5059669;28;20487;-74
2023/01/23 11:41:47;;;;;;;26.97;10.53;;;2.70;99.90;;;;;;5050976;28;20448;-74
2023/01/23 11:44:19;;;;;;;25.97;10.50;;;2.70;99.90;;;;;;5062714;28;20424;-73
2023/01/23 11:46:44;;;;;;;26.67;11.27;;;2.70;99.90;;;;;;5057624;28;20733;-73
2023/01/23 11:49:53;;;;;;;27.77;12.60;;;2.70;99.90;;;;;;5067799;28;20520;-73
2023/01/23 11:52:48;;;;;;;29.23;12.47;;;2.80;99.90;;;;;;5051265;28;20263;-75
2023/01/23 11:55:39;;;;;;;29.83;12.20;;;2.70;99.90;;;;;;5052816;28;20536;-75
2023/01/23 11:58:52;;;;;;;30.03;11.60;;;2.70;99.90;;;;;;5062991;28;20434;-74
2023/01/23 12:01:27;;;;;;;29.20;10.83;;;2.70;99.90;;;;;;5015825;28;20450;-74
2023/01/23 12:04:44;;;;;;;29.53;12.17;;;2.80;99.90;;;;;;5062479;28;20420;-74
2023/01/23 12:07:20;;;;;;;28.20;11.40;;;2.70;99.90;;;;;;5021882;28;20593;-73
2023/01/23 12:10:16;;;;;;;26.83;11.73;;;2.50;99.90;;;;;;5058108;28;20437;-74
2023/01/23 12:13:15;;;;;;;26.90;10.67;;;2.40;99.90;;;;;;5051895;28;20474;-74
2023/01/23 12:15:49;;;;;;;28.47;12.10;;;2.40;99.90;;;;;;5051909;28;20473;-74
2023/01/23 12:18:37;;;;;;;26.60;12.03;;;2.40;99.90;;;;;;5058959;28;20526;-74
2023/01/23 12:21:18;;;;;;;27.50;11.90;;;2.40;99.90;;;;;;5058897;28;20569;-74
2023/01/23 12:23:52;;;;;;;30.43;12.30;;;2.30;99.90;;;;;;5058836;28;20787;-74
2023/01/23 12:26:21;;;;;;;33.83;11.57;;;2.40;99.90;;;;;;5059948;28;20434;-74
2023/01/23 12:29:05;;;;;;;27.40;11.20;;;2.40;99.90;;;;;;5057453;28;20407;-75
2023/01/23 12:31:31;;;;;;;26.13;10.87;;;2.50;99.90;;;;;;5058472;28;20478;-73
2023/01/23 12:34:23;;;;;;;30.83;12.80;;;2.70;99.90;;;;;;5056872;28;20415;-73
2023/01/23 12:37:05;;;;;;;28.33;11.60;;;2.90;99.90;;;;;;5057095;28;20214;-74
2023/01/23 12:39:56;;;;;;;28.17;11.10;;;3.10;99.90;;;;;;5066939;28;20494;-74
2023/01/23 12:42:35;;;;;;;28.33;11.27;;;3.20;99.90;;;;;;5060194;28;20828;-74
2023/01/23 12:45:05;;;;;;;26.40;10.57;;;3.30;99.90;;;;;;5055693;28;20426;-74
2023/01/23 12:47:38;;;;;;;26.53;9.93;;;3.40;99.90;;;;;;5060091;28;20965;-73
2023/01/23 12:50:29;;;;;;;27.90;11.90;;;3.50;99.90;;;;;;5061214;28;20435;-74
2023/01/23 12:53:02;;;;;;;30.40;11.17;;;3.70;99.90;;;;;;5045237;28;20436;-74
2023/01/23 12:55:35;;;;;;;26.57;11.77;;;3.70;99.90;;;;;;5059489;28;20472;-74
2023/01/23 12:58:01;;;;;;;30.30;12.97;;;3.80;99.90;;;;;;5052265;28;20458;-73
2023/01/23 13:01:11;;;;;;;29.60;12.37;;;3.80;99.90;;;;;;5062768;28;20433;-75
2023/01/23 13:03:54;;;;;;;27.57;11.20;;;3.90;99.90;;;;;;5041856;28;20424;-74
2023/01/23 13:06:19;;;;;;;27.40;11.57;;;3.90;99.90;;;;;;5055252;28;20534;-74
2023/01/23 13:08:53;;;;;;;28.17;12.30;;;3.80;99.90;;;;;;5065866;28;20465;-74
2023/01/23 13:11:39;;;;;;;30.60;12.90;;;3.70;99.90;;;;;;5065522;28;20708;-74
2023/01/23 13:14:24;;;;;;;25.50;9.87;;;3.60;99.90;;;;;;5065892;28;20929;-74
2023/01/23 13:16:51;;;;;;;27.43;10.90;;;3.60;99.90;;;;;;5065569;28;20523;-74
2023/01/23 13:22:24;;;;;;;28.53;12.07;;;3.70;99.90;;;;;;5065669;28;20536;-74
2023/01/23 13:25:13;;;;;;;28.17;11.20;;;3.80;99.90;;;;;;5060298;28;20424;-74
2023/01/23 13:28:28;;;;;;;29.07;11.13;;;3.90;99.90;;;;;;5049198;28;20837;-74
2023/01/23 13:31:03;;;;;;;27.50;10.97;;;3.90;99.90;;;;;;5064868;28;20498;-74
2023/01/23 13:33:32;;;;;;;22.67;9.20;;;3.90;99.90;;;;;;5065023;28;20429;-74
2023/01/23 13:36:12;;;;;;;27.43;11.23;;;3.80;99.90;;;;;;5073782;28;20831;-74
2023/01/23 13:38:39;;;;;;;25.50;10.93;;;3.80;99.90;;;;;;5062251;28;20418;-74
2023/01/23 13:41:07;;;;;;;26.73;10.80;;;3.90;99.90;;;;;;5054052;28;20446;-74
2023/01/23 13:44:09;;;;;;;28.83;11.27;;;3.70;99.90;;;;;;5064055;28;20428;-73
2023/01/23 13:47:05;;;;;;;25.07;10.20;;;3.60;99.90;;;;;;5065106;28;20417;-74
2023/01/23 13:49:54;;;;;;;23.97;10.57;;;3.50;99.90;;;;;;5073260;28;20418;-72
2023/01/23 13:58:05;;;;;;;24.73;9.77;;;3.50;99.90;;;;;;5063652;28;20412;-74
2023/01/23 14:00:34;;;;;;;24.70;9.50;;;3.40;99.90;;;;;;5063180;28;20923;-73
2023/01/23 14:06:10;;;;;;;25.97;10.83;;;3.50;99.90;;;;;;5066888;28;20594;-74
2023/01/23 14:08:52;;;;;;;27.03;10.13;;;3.40;99.90;;;;;;5054305;28;20468;-74
2023/01/23 14:11:20;;;;;;;29.03;10.87;;;3.40;99.90;;;;;;5053789;28;20458;-74
2023/01/23 14:13:50;;;;;;;25.40;10.83;;;3.50;99.90;;;;;;5052688;28;20922;-75
2023/01/23 14:16:22;;;;;;;25.80;10.60;;;3.50;99.90;;;;;;5060584;28;20467;-73
2023/01/23 14:18:51;;;;;;;28.23;11.10;;;3.50;99.90;;;;;;5047426;28;20956;-75
2023/01/23 14:21:26;;;;;;;27.47;10.53;;;3.50;99.90;;;;;;5052180;28;20481;-74
2023/01/23 14:23:57;;;;;;;24.67;9.47;;;3.50;99.90;;;;;;5045532;28;20438;-74
2023/01/23 14:26:26;;;;;;;20.33;9.93;;;3.40;99.90;;;;;;5060374;28;20456;-75
2023/01/23 14:29:04;;;;;;;19.43;10.57;;;3.30;99.90;;;;;;5057182;28;20938;-74
2023/01/23 14:31:31;;;;;;;19.33;9.57;;;3.30;99.90;;;;;;5071473;28;20465;-74
2023/01/23 14:34:05;;;;;;;18.73;9.10;;;3.20;99.90;;;;;;5071587;28;20449;-74
2023/01/23 14:36:33;;;;;;;19.50;9.47;;;3.30;99.90;;;;;;5071168;28;20465;-73
2023/01/23 14:39:00;;;;;;;17.80;9.97;;;3.20;99.90;;;;;;5072085;28;20469;-73